Seafield, United Kingdom
Current Conditions -  °F | °C
As of 6:20 AM on Wednesday 26 Nov 2014 (Local Time) from EGPH Reporting Station
Few Clouds Few Clouds  
Wind Chill: 37°   Ceiling: Unl
Heat Index: 37°   Visibility: 4mi
Dew Point: 37°   Wind: 2mph
Humidity: 100%   Direction: 240°WSW
Pressure: 30.03"   Gusts: NA
Location:  55.97°N, 3.15°W
Report Text: EGPH 260620Z 24002KT 7000 FEW046 03/03 Q1017
Loading
Personal Weather Stations






























Interactive Weather Map New forecast layout! Learn more

10-Day Weather Forecast

Advertisements
Track Severe Weather on mobile